My Meet Scores
Valencia Ptak, IGI Gymnastics - MyMeetScores.com
Top100 | Top Teams | Upcoming Meets | Completed Meets | Latest | Add Scores | Help| Support | Bookmark and Share

Valencia Ptak, IGI Gymnastics
Personal Bests
LevelVault BarsBeamFloorAA
39.4509.700 9.2259.52537.375
48.8009.425 9.4509.25036.125
59.6009.250 9.6509.50037.600
Meet Scores
Date Meet Team Session Level Division Vault Bars Beam Floor AA
2019-03-22 Illinois Gymnastics State Championships IGI Gymnastics 2 5 JR C 9.600 1 9.200 10 9.300 2 9.500 4 37.600 2T
2019-02-15 Presidential Classic IGI Gymnastics B12 5 L5_Grp1 9.250 2 9.250 3T 8.900 9 9.500 1 36.900 1
2019-02-08 IGI Chicago Style 2019 IGI Gymnastics 8 5 212 Lakeshore L5 A 9.200 1 9.000 7 9.250 2 9.250 3 36.700 2
2019-01-25 King Arthur Invitational IGI Gymnastics 13 5 JR B 9.300 2 8.575 6T 9.650 1 9.200 1 36.725 4
2019-01-11 St Jude Benefit Meet IGI Gymnastics 9A 5 Jr B 9.200 3T 9.150 4 9.450 2 9.200 5T 37.000 2
2018-12-07 St. Nick Invite 2018 IGI Gymnastics 1 5 JrA 9.200 5 8.250 14T 9.050 7T 8.400 12T 34.900 10
2018-03-08 Level 4 & 5 State Infinity Gymnastics Academy All 4 Ch F 8.750 17 8.750 17T 9.425 7T 9.200 9 36.125 10
2018-02-23 Kinetic Classic Infinity Gymnastics Academy 7 4 Younger 8.300 44T 8.700 45T 8.475 75 9.250 28T 34.725 47
2018-02-02 Chris Waller's Heart Of A Champion Invitational Infinity Gymnastics Academy 12H 4 Jr A 8.425 9T 9.200 3T 8.900 5 9.150 4 35.675 5
2018-01-18 Circle Of Stars Gymnastics Invitational Infinity Gymnastics Academy C3 4 Jr A 8.700 7T 8.950 7T 9.450 1 8.700 10 35.800 4
2018-01-12 St Jude Benefit Meet Infinity Gymnastics Academy 3A 4 JrB 8.625 4T 9.175 7 9.350 4 8.800 11 35.950 6
2017-12-14 2017 Women's Hawaiian Pineapple Classic Infinity Gymnastics Academy 1A 4 Age9 8.800 4 8.650 6T 8.500 10T 8.625 13T 34.575 8
2017-11-10 Illinois NAWGJ Judges Cup 2017 Infinity Gymnastics Academy G3 4 All Ages 8.675 18T 9.425 6T 8.250 51T 8.475 29 34.825 20T
2017-03-30 2017 Illinois Level 3 & 5 State Infinity Gymnastics Academy All 3 Yh A 9.450 9 9.275 11 8.900 14 9.250 7T 36.875 8T
2017-03-10 Lucky Invitational Infinity Gymnastics Academy B02 3 Jr B 9.050 9 9.700 1 9.100 5 9.525 2 37.375 3T
2017-02-24 Houston National Invitational - Ocean View Infinity Gymnastics Academy O03 3 Jr B 9.425 3 9.500 3 8.800 3 9.500 2T 37.225 3
2017-02-10 IGI Chicago Style Gymnastics Meet Infinity Gymnastics Academy 232L 3 JrB 9.150 13 9.300 3 9.125 9 9.250 2 36.825 4
2017-01-28 Wisconsin Dells Gymnastics Vacation Classic - USAG Infinity Gymnastics Academy B6 3 Junior A 9.075 9 9.525 1 9.225 1 9.150 4 36.975 1
2017-01-13 St Jude Benefit Meet Infinity Gymnastics Academy 9A 3 Jr B 8.925 10 9.450 7 8.025 12 9.200 7 35.600 8T
2016-12-15 2016 Hawaiian Pineapple Sanction Infinity Gymnastics Academy 5B 3 Age 8 9.050 10T 9.400 1 9.075 5 8.875 10 36.400 3
2016-11-11 2016 Illinois Judges Cup Infinity Gymnastics Academy B6 3 9 and Unde 9.250 2T 9.200 1T 8.900 3 8.650 7 36.000 2
Get your scores on
a t-shirt, pin, or hoodie

Order by December 13

www.lazysuits.com